Schneifelwetter: Wetterstation Hallschlag, 537 m . NN
Wetterdaten: Donnerstag, 01.04.2010
Datum Zeit Temp. A. Feuchte A. Luftdruck Regen Wind Richtung Richtung Sonnenschein Helligkeit T Regen Taupunkt Windchill
01.04.2010 00:01 0,5 C 87 % 1001 hPa 0,0 l/m 33,6 km/h (5 Bft) W-SW45 240 0 min 0 lux 0,00 min -1,4 C -13,7 C
01.04.2010 00:16 0,5 C 87 % 1001 hPa 0,0 l/m 34,5 km/h (5 Bft) W-SW22.5 245 0 min 0 lux 0,00 min -1,4 C -13,9 C
01.04.2010 00:31 0,5 C 86 % 1002 hPa 0,0 l/m 38,4 km/h (5 Bft) W-SW45 250 0 min 0 lux 0,00 min -1,6 C -14,9 C
01.04.2010 00:46 0,5 C 86 % 1002 hPa 0,0 l/m 43,8 km/h (6 Bft) W-SW45 245 0 min 0 lux 0,00 min -1,6 C -15,9 C
01.04.2010 01:01 0,4 C 87 % 1001 hPa 0,0 l/m 34,1 km/h (5 Bft) W-SW22.5 245 0 min 0 lux 0,00 min -1,5 C -14,0 C
01.04.2010 01:16 0,4 C 87 % 1002 hPa 0,0 l/m 40,0 km/h (6 Bft) W-SW45 255 0 min 0 lux 0,00 min -1,5 C -15,3 C
01.04.2010 01:31 0,3 C 86 % 1002 hPa 0,0 l/m 41,0 km/h (6 Bft) W-SW45 245 0 min 0 lux 0,00 min -1,8 C -15,7 C
01.04.2010 01:46 0,1 C 86 % 1002 hPa 0,0 l/m 34,4 km/h (5 Bft) W-SW22.5 240 0 min 0 lux 0,00 min -2,0 C -14,5 C
01.04.2010 02:01 0,2 C 86 % 1002 hPa 0,0 l/m 42,7 km/h (6 Bft) W-SW45 240 0 min 0 lux 0,00 min -1,9 C -16,2 C
01.04.2010 02:17 0,2 C 86 % 1002 hPa 0,0 l/m 43,7 km/h (6 Bft) W-SW45 245 0 min 0 lux 0,00 min -1,9 C -16,4 C
01.04.2010 02:32 0,2 C 86 % 1002 hPa 0,0 l/m 31,2 km/h (5 Bft) W-SW22.5 250 0 min 0 lux 0,00 min -1,9 C -13,5 C
01.04.2010 02:47 0,1 C 87 % 1002 hPa 0,0 l/m 33,6 km/h (5 Bft) W-SW45 245 0 min 0 lux 0,00 min -1,8 C -14,3 C
01.04.2010 03:02 -0,2 C 87 % 1002 hPa 0,0 l/m 43,3 km/h (6 Bft) W-SW45 240 0 min 0 lux 0,00 min -2,1 C -16,9 C
01.04.2010 03:16 -0,2 C 87 % 1003 hPa 0,0 l/m 36,5 km/h (5 Bft) W-SW45 250 0 min 0 lux 0,00 min -2,1 C -15,4 C
01.04.2010 03:31 -0,2 C 87 % 1003 hPa 0,0 l/m 33,2 km/h (5 Bft) W-SW45 250 0 min 0 lux 0,00 min -2,1 C -14,6 C
01.04.2010 03:46 -0,3 C 88 % 1003 hPa 0,0 l/m 32,7 km/h (5 Bft) SW22.5 235 0 min 0 lux 0,00 min -2,0 C -14,6 C
01.04.2010 04:01 -0,3 C 88 % 1003 hPa 0,0 l/m 30,7 km/h (5 Bft) W-SW45 240 0 min 0 lux 0,00 min -2,0 C -14,0 C
01.04.2010 04:16 -0,4 C 88 % 1003 hPa 0,0 l/m 31,7 km/h (5 Bft) SW45 215 0 min 0 lux 0,00 min -2,1 C -14,5 C
01.04.2010 04:31 -0,3 C 88 % 1003 hPa 0,0 l/m 36,4 km/h (5 Bft) W-SW45 250 0 min 0 lux 0,00 min -2,0 C -15,6 C
01.04.2010 04:46 -0,3 C 88 % 1003 hPa 0,0 l/m 36,5 km/h (5 Bft) W-SW45 240 0 min 0 lux 0,00 min -2,0 C -15,6 C
01.04.2010 05:01 -0,3 C 88 % 1003 hPa 0,0 l/m 34,8 km/h (5 Bft) W-SW22.5 250 0 min 0 lux 0,00 min -2,0 C -15,2 C
01.04.2010 05:16 -0,3 C 88 % 1003 hPa 0,0 l/m 35,2 km/h (5 Bft) W-SW45 250 0 min 0 lux 0,00 min -2,0 C -15,3 C
01.04.2010 05:31 -0,3 C 88 % 1003 hPa 0,0 l/m 22,9 km/h (4 Bft) W-SW45 240 0 min 0 lux 0,00 min -2,0 C -11,3 C
01.04.2010 05:46 -0,4 C 88 % 1003 hPa 0,0 l/m 32,1 km/h (5 Bft) SW22.5 225 0 min 0 lux 0,00 min -2,1 C -14,6 C
01.04.2010 06:01 -0,6 C 89 % 1004 hPa 0,0 l/m 32,9 km/h (5 Bft) W-SW45 240 0 min 0 lux 0,00 min -2,2 C -15,1 C
01.04.2010 06:16 -0,8 C 89 % 1004 hPa 0,0 l/m 31,8 km/h (5 Bft) SW45 225 0 min 0 lux 0,00 min -2,4 C -15,1 C
01.04.2010 06:31 -1,0 C 89 % 1004 hPa 0,0 l/m 36,7 km/h (5 Bft) SW45 225 0 min 0 lux 0,00 min -2,6 C -16,7 C
01.04.2010 06:46 -1,0 C 90 % 1004 hPa 0,0 l/m 35,8 km/h (5 Bft) W-SW45 240 0 min 0 lux 0,00 min -2,4 C -16,4 C
01.04.2010 07:01 -1,0 C 90 % 1004 hPa 0,0 l/m 35,8 km/h (5 Bft) SW45 235 0 min 91 lux 0,00 min -2,4 C -16,4 C
01.04.2010 07:16 -0,9 C 90 % 1004 hPa 0,0 l/m 29,5 km/h (5 Bft) W-SW45 240 0 min 512 lux 0,00 min -2,3 C -14,5 C
01.04.2010 07:31 -0,9 C 90 % 1005 hPa 0,0 l/m 30,7 km/h (5 Bft) SW45 235 0 min 1,73 klux 0,00 min -2,3 C -14,9 C
01.04.2010 07:46 -0,8 C 90 % 1005 hPa 0,0 l/m 30,9 km/h (5 Bft) W-SW45 240 0 min 2,58 klux 0,00 min -2,2 C -14,8 C
01.04.2010 08:01 -0,6 C 90 % 1005 hPa 0,0 l/m 30,1 km/h (5 Bft) SW45 225 0 min 11,1 klux 0,00 min -2,0 C -14,3 C
01.04.2010 08:16 -0,6 C 90 % 1005 hPa 0,0 l/m 34,7 km/h (5 Bft) W-SW45 245 0 min 3,71 klux 0,00 min -2,0 C -15,6 C
01.04.2010 08:31 -0,5 C 90 % 1005 hPa 0,0 l/m 36,4 km/h (5 Bft) SW45 225 0 min 4,17 klux 0,00 min -1,9 C -15,9 C
01.04.2010 08:46 -0,2 C 90 % 1005 hPa 0,0 l/m 32,9 km/h (5 Bft) SW45 235 0 min 9,5 klux 0,00 min -1,6 C -14,5 C
01.04.2010 09:01 0,4 C 88 % 1006 hPa 0,0 l/m 29,6 km/h (5 Bft) SW45 220 0 min 35,0 klux 0,00 min -1,3 C -12,7 C
01.04.2010 09:16 0,7 C 88 % 1006 hPa 0,0 l/m 35,4 km/h (5 Bft) W-SW45 250 0 min 17,6 klux 0,00 min -1,1 C -13,9 C
01.04.2010 09:31 0,8 C 87 % 1006 hPa 0,0 l/m 40,0 km/h (6 Bft) SW45 235 0 min 18,2 klux 0,00 min -1,1 C -14,7 C
01.04.2010 09:46 0,7 C 88 % 1006 hPa 0,0 l/m 32,5 km/h (5 Bft) SW45 220 0 min 11,1 klux 0,00 min -1,1 C -13,1 C
01.04.2010 10:01 0,9 C 87 % 1006 hPa 0,0 l/m 45,7 km/h (6 Bft) W-SW22.5 250 0 min 13,3 klux 0,00 min -1,0 C -15,6 C
01.04.2010 10:16 1,2 C 86 % 1006 hPa 0,0 l/m 32,3 km/h (5 Bft) W-SW45 245 0 min 22,5 klux 0,00 min -0,9 C -12,4 C
01.04.2010 10:31 1,3 C 86 % 1007 hPa 0,0 l/m 38,3 km/h (5 Bft) SW45 215 0 min 14,9 klux 0,00 min -0,8 C -13,7 C
01.04.2010 10:47 1,2 C 85 % 1007 hPa 0,0 l/m 34,3 km/h (5 Bft) W-SW45 250 0 min 12,2 klux 0,00 min -1,0 C -12,9 C
01.04.2010 11:01 1,4 C 84 % 1007 hPa 0,0 l/m 33,7 km/h (5 Bft) W-SW45 240 0 min 16,8 klux 0,00 min -1,0 C -12,4 C
01.04.2010 11:16 1,8 C 85 % 1007 hPa 0,0 l/m 29,5 km/h (5 Bft) SW45 230 0 min 44,9 klux 0,00 min -0,4 C -10,7 C
01.04.2010 11:31 2,3 C 83 % 1007 hPa 0,0 l/m 42,6 km/h (6 Bft) SW45 235 0 min 34,7 klux 0,00 min -0,3 C -13,0 C
01.04.2010 11:46 2,3 C 83 % 1007 hPa 0,0 l/m 36,8 km/h (5 Bft) W-SW67.5 250 0 min 35,8 klux 0,00 min -0,3 C -11,9 C
01.04.2010 12:01 3,5 C 82 % 1008 hPa 0,0 l/m 36,3 km/h (5 Bft) SW45 235 15 min 80,5 klux 0,00 min 0,7 C -10,0 C
01.04.2010 12:16 3,6 C 76 % 1008 hPa 0,0 l/m 40,4 km/h (6 Bft) W-SW22.5 255 0 min 28,4 klux 0,00 min -0,2 C -10,7 C
01.04.2010 12:32 4,2 C 75 % 1008 hPa 0,0 l/m 46,9 km/h (6 Bft) W22.5 260 16 min 71,2 klux 0,00 min 0,2 C -10,8 C
01.04.2010 12:46 4,3 C 70 % 1008 hPa 0,0 l/m 48,6 km/h (6 Bft) W-SW22.5 250 14 min 82,8 klux 0,00 min -0,7 C -10,9 C
01.04.2010 13:01 4,8 C 68 % 1008 hPa 0,0 l/m 42,5 km/h (6 Bft) W-SW45 245 0 min 43,7 klux 0,00 min -0,6 C -9,2 C
01.04.2010 13:16 5,1 C 67 % 1008 hPa 0,0 l/m 49,5 km/h (6 Bft) W-SW22.5 255 15 min 82,0 klux 0,00 min -0,5 C -9,8 C
01.04.2010 13:31 5,2 C 65 % 1008 hPa 0,0 l/m 43,6 km/h (6 Bft) W-SW45 250 15 min 84,5 klux 0,00 min -0,8 C -8,8 C
01.04.2010 13:46 5,6 C 65 % 1009 hPa 0,0 l/m 50,5 km/h (7 Bft) W-SW45 250 15 min 61,5 klux 0,00 min -0,4 C -9,1 C
01.04.2010 14:01 5,6 C 66 % 1009 hPa 0,0 l/m 40,4 km/h (6 Bft) W-SW45 245 15 min 87,2 klux 0,00 min -0,2 C -7,7 C
01.04.2010 14:16 6,2 C 61 % 1009 hPa 0,0 l/m 41,5 km/h (6 Bft) W45 260 15 min 94,8 klux 0,00 min -0,7 C -7,0 C
01.04.2010 14:31 7,0 C 62 % 1009 hPa 0,0 l/m 44,4 km/h (6 Bft) W-SW45 250 15 min 84,7 klux 0,00 min 0,2 C -6,2 C
01.04.2010 14:46 7,0 C 60 % 1009 hPa 0,0 l/m 35,5 km/h (5 Bft) W-SW22.5 245 15 min 76,9 klux 0,00 min -0,2 C -4,8 C
01.04.2010 15:01 5,9 C 62 % 1009 hPa 0,0 l/m 41,1 km/h (6 Bft) W-SW22.5 250 0 min 31,0 klux 0,00 min -0,8 C -7,4 C
01.04.2010 15:16 6,1 C 60 % 1009 hPa 0,0 l/m 32,5 km/h (5 Bft) SW45 235 15 min 84,3 klux 0,00 min -1,1 C -5,4 C
01.04.2010 15:31 6,4 C 60 % 1009 hPa 0,0 l/m 37,3 km/h (5 Bft) W-SW45 245 15 min 85,9 klux 0,00 min -0,8 C -6,0 C
01.04.2010 15:46 6,9 C 57 % 1009 hPa 0,0 l/m 41,3 km/h (6 Bft) W-SW22.5 250 15 min 83,6 klux 0,00 min -1,0 C -5,9 C
01.04.2010 16:01 7,2 C 58 % 1009 hPa 0,0 l/m 40,6 km/h (6 Bft) W45 260 15 min 82,6 klux 0,00 min -0,5 C -5,4 C
01.04.2010 16:16 6,7 C 57 % 1009 hPa 0,0 l/m 45,2 km/h (6 Bft) W45 265 15 min 70,0 klux 0,00 min -1,2 C -6,8 C
01.04.2010 16:31 6,0 C 54 % 1009 hPa 0,0 l/m 38,5 km/h (5 Bft) W22.5 270 15 min 63,4 klux 0,00 min -2,6 C -6,8 C
01.04.2010 16:46 4,5 C 62 % 1010 hPa 0,0 l/m 42,6 km/h (6 Bft) W-SW45 250 0 min 17,0 klux 0,00 min -2,1 C -9,7 C
01.04.2010 17:01 4,3 C 66 % 1010 hPa 0,0 l/m 36,8 km/h (5 Bft) W22.5 265 0 min 22,5 klux 0,00 min -1,5 C -8,9 C
01.04.2010 17:16 3,4 C 71 % 1011 hPa 0,0 l/m 44,9 km/h (6 Bft) W-SW45 255 0 min 14,8 klux 0,00 min -1,3 C -11,7 C
01.04.2010 17:32 3,5 C 75 % 1011 hPa 0,0 l/m 25,7 km/h (4 Bft) W-SW45 250 16 min 57,4 klux 0,00 min -0,5 C -7,2 C
01.04.2010 17:46 3,7 C 72 % 1011 hPa 0,0 l/m 28,1 km/h (4 Bft) W-SW22.5 255 0 min 44,5 klux 0,00 min -0,9 C -7,7 C
01.04.2010 18:01 3,7 C 72 % 1011 hPa 0,0 l/m 34,1 km/h (5 Bft) W-SW22.5 255 0 min 41,1 klux 0,00 min -0,9 C -9,2 C
01.04.2010 18:16 3,7 C 72 % 1011 hPa 0,0 l/m 35,5 km/h (5 Bft) W-SW45 255 0 min 37,2 klux 0,00 min -0,9 C -9,5 C
01.04.2010 18:31 3,7 C 70 % 1011 hPa 0,0 l/m 32,9 km/h (5 Bft) W-SW45 250 0 min 33,0 klux 0,00 min -1,3 C -8,9 C
01.04.2010 18:46 3,6 C 70 % 1011 hPa 0,0 l/m 31,0 km/h (5 Bft) W22.5 260 0 min 28,2 klux 0,00 min -1,3 C -8,6 C
01.04.2010 19:01 3,1 C 71 % 1011 hPa 0,0 l/m 29,6 km/h (5 Bft) W22.5 260 0 min 9,1 klux 0,00 min -1,6 C -8,9 C
01.04.2010 19:16 2,5 C 72 % 1011 hPa 0,0 l/m 23,7 km/h (4 Bft) W-SW22.5 255 0 min 15,9 klux 0,00 min -2,0 C -7,9 C
01.04.2010 19:31 2,3 C 74 % 1011 hPa 0,0 l/m 18,1 km/h (3 Bft) W-SW22.5 245 0 min 14,1 klux 0,00 min -1,8 C -5,8 C
01.04.2010 19:46 1,9 C 74 % 1012 hPa 0,0 l/m 21,8 km/h (4 Bft) W-SW22.5 250 0 min 3,43 klux 0,00 min -2,2 C -7,9 C
01.04.2010 20:01 1,2 C 74 % 1012 hPa 0,0 l/m 20,3 km/h (4 Bft) W-SW22.5 250 0 min 1,60 klux 0,00 min -2,9 C -8,2 C
01.04.2010 20:16 0,8 C 74 % 1012 hPa 0,0 l/m 17,9 km/h (3 Bft) W-SW22.5 255 0 min 687 lux 0,00 min -3,3 C -7,6 C
01.04.2010 20:31 0,7 C 76 % 1012 hPa 0,0 l/m 13,1 km/h (3 Bft) W-SW22.5 250 0 min 102 lux 0,00 min -3,0 C -4,9 C
01.04.2010 20:46 0,4 C 77 % 1012 hPa 0,0 l/m 6,2 km/h (2 Bft) W-SW 250 0 min 21 lux 0,00 min -3,1 C 0,4 C
01.04.2010 21:01 -0,4 C 78 % 1013 hPa 0,0 l/m 3,4 km/h (1 Bft) W-SW 255 0 min 7 lux 0,00 min -3,8 C -0,4 C
01.04.2010 21:16 -1,1 C 79 % 1013 hPa 0,0 l/m 2,3 km/h (1 Bft) W-SW 255 0 min 0 lux 0,00 min -4,3 C -1,1 C
01.04.2010 21:31 -1,6 C 80 % 1013 hPa 0,0 l/m 0,0 km/h (0 Bft) W-SW 255 0 min 0 lux 0,00 min -4,6 C -1,6 C
01.04.2010 21:46 -2,0 C 81 % 1013 hPa 0,0 l/m 0,0 km/h (0 Bft) W-SW 255 0 min 0 lux 0,00 min -4,8 C -2,0 C
01.04.2010 22:01 -2,2 C 82 % 1013 hPa 0,0 l/m 2,1 km/h (1 Bft) W-SW 255 0 min 0 lux 0,00 min -4,8 C -2,2 C
01.04.2010 22:16 -2,3 C 83 % 1013 hPa 0,0 l/m 2,2 km/h (1 Bft) W-SW 255 0 min 0 lux 0,00 min -4,8 C -2,3 C
01.04.2010 22:32 -2,4 C 83 % 1013 hPa 0,0 l/m 0,0 km/h (0 Bft) W-SW 255 0 min 0 lux 0,00 min -4,9 C -2,4 C
01.04.2010 22:46 -2,6 C 83 % 1013 hPa 0,0 l/m 0,0 km/h (0 Bft) W-SW 255 0 min 0 lux 0,00 min -5,1 C -2,6 C
01.04.2010 23:01 -2,8 C 84 % 1013 hPa 0,0 l/m 0,0 km/h (0 Bft) W-SW 255 0 min 0 lux 0,00 min -5,1 C -2,8 C
01.04.2010 23:16 -2,7 C 85 % 1014 hPa 0,0 l/m 0,0 km/h (0 Bft) W-SW 255 0 min 0 lux 0,00 min -4,9 C -2,7 C
01.04.2010 23:31 -2,8 C 85 % 1013 hPa 0,0 l/m 0,0 km/h (0 Bft) W-SW 255 0 min 0 lux 0,00 min -5,0 C -2,8 C
01.04.2010 23:46 -3,0 C 85 % 1014 hPa 0,0 l/m 0,0 km/h (0 Bft) W-SW 255 0 min 0 lux 0,00 min -5,2 C -3,0 C
_ Min-Zeit 23:46 16:31 00:01 - 21:31 - - - - - 23:46 03:02
Minimum _ -3,0 C 54 % 1001 hPa - 0,0 km/h (0 Bft) - - - - - -5,2 C -16,9 C
_ Max-Zeit 16:01 06:46 23:16 00:01 13:46 - - 12:32 14:16 00:01 12:01 20:46
Maximum _ 7,2 C 90 % 1014 hPa 0,0 l/m 50,5 km/h
W-SW (7 Bft)
- - 16 min 94,8 klux 0,00 min 0,7 C 0,4 C
Durchschnitt _ 1,4 C 80 % 1007 hPa #0,0 l/m 30,8 km/h (5 Bft) W-SW - #4:16 h 21,1 klux #0 min. -1,9 C -10,5 C